Time;durP1;ratioP1;P1;durP2;ratioP2;P2;SDS_P1;SDS_P2;PMS_P1;PMS_P2;Temp;Humidity;BMP_temperature;BMP_pressure;BME280_temperature;BME280_humidity;BME280_pressure;Samples;Min_cycle;Max_cycle;Signal;HPM_P1;HPM_P2
2022/10/01 00:01:03;;;;;;;;;;;20.10;69.20;;;;;;5023772;28;911;-71
2022/10/01 00:03:29;;;;;;;;;;;20.20;69.50;;;;;;5021673;28;1361;-72
2022/10/01 00:06:01;;;;;;;;;;;20.10;69.20;;;;;;5022690;28;1460;-71
2022/10/01 00:08:27;;;;;;;;;;;20.10;69.20;;;;;;5020613;28;1701;-72
2022/10/01 00:10:52;;;;;;;;;;;20.10;69.20;;;;;;5021321;28;1374;-68
2022/10/01 00:13:18;;;;;;;;;;;20.10;69.20;;;;;;5021895;28;1303;-69
2022/10/01 00:15:43;;;;;;;;;;;20.10;69.20;;;;;;5021713;28;1413;-69
2022/10/01 00:18:09;;;;;;;;;;;20.10;69.30;;;;;;5020570;28;1340;-70
2022/10/01 00:20:34;;;;;;;;;;;20.10;69.20;;;;;;5020826;28;1312;-71
2022/10/01 00:22:59;;;;;;;;;;;20.10;69.30;;;;;;5020080;28;1424;-70
2022/10/01 00:25:25;;;;;;;;;;;20.10;69.30;;;;;;5021468;28;1411;-70
2022/10/01 00:27:50;;;;;;;;;;;20.10;69.30;;;;;;5020416;28;1902;-69
2022/10/01 00:30:16;;;;;;;;;;;20.10;69.40;;;;;;5022873;28;1399;-69
2022/10/01 00:32:41;;;;;;;;;;;20.10;69.40;;;;;;5022333;28;1450;-69
2022/10/01 00:35:11;;;;;;;;;;;20.10;69.40;;;;;;5020871;28;1454;-73
2022/10/01 00:37:36;;;;;;;;;;;20.10;69.40;;;;;;5021582;28;1935;-72
2022/10/01 00:40:05;;;;;;;;;;;20.10;69.40;;;;;;5019660;28;1558;-72
2022/10/01 00:42:30;;;;;;;;;;;20.10;69.40;;;;;;5019642;28;1390;-72
2022/10/01 00:44:57;;;;;;;;;;;20.10;69.50;;;;;;5019676;28;1237;-72
2022/10/01 00:47:27;;;;;;;;;;;20.10;69.50;;;;;;5021947;28;1974;-72
2022/10/01 00:49:54;;;;;;;;;;;20.10;69.40;;;;;;5020691;28;1085;-72
2022/10/01 00:52:21;;;;;;;;;;;20.10;69.50;;;;;;5022011;28;939;-72
2022/10/01 00:55:03;;;;;;;;;;;20.10;69.50;;;;;;5024437;28;913;-70
2022/10/01 00:57:29;;;;;;;;;;;20.10;69.50;;;;;;5024366;28;1399;-72
2022/10/01 00:59:55;;;;;;;;;;;20.10;69.50;;;;;;5022526;28;936;-72
2022/10/01 01:02:21;;;;;;;;;;;20.10;69.50;;;;;;5024711;28;1313;-72
2022/10/01 01:04:47;;;;;;;;;;;20.10;69.60;;;;;;5021485;28;1043;-72
2022/10/01 01:07:12;;;;;;;;;;;20.10;69.50;;;;;;5023010;28;1910;-72
2022/10/01 01:09:42;;;;;;;;;;;20.10;69.50;;;;;;5022550;28;1388;-72
2022/10/01 01:12:23;;;;;;;;;;;20.10;69.50;;;;;;5025827;28;1062;-72
2022/10/01 01:15:06;;;;;;;;;;;20.10;69.60;;;;;;5025786;28;1107;-72
2022/10/01 01:17:39;;;;;;;;;;;20.10;69.60;;;;;;5021884;28;1241;-71
2022/10/01 01:20:04;;;;;;;;;;;20.10;69.60;;;;;;5022215;28;819;-71
2022/10/01 01:22:30;;;;;;;;;;;20.10;69.60;;;;;;5022933;28;1174;-71
2022/10/01 01:24:56;;;;;;;;;;;20.10;69.60;;;;;;5021364;28;801;-72
2022/10/01 01:27:30;;;;;;;;;;;20.10;70.30;;;;;;5021110;28;1987;-71
2022/10/01 01:29:59;;;;;;;;;;;20.10;69.60;;;;;;5029226;28;882;-71
2022/10/01 01:32:29;;;;;;;;;;;20.10;69.60;;;;;;5024092;28;970;-71
2022/10/01 01:34:55;;;;;;;;;;;20.10;69.60;;;;;;5019291;28;861;-72
2022/10/01 01:37:22;;;;;;;;;;;20.10;69.70;;;;;;5023301;28;1229;-71
2022/10/01 01:39:47;;;;;;;;;;;20.10;69.70;;;;;;5017718;28;867;-72
2022/10/01 01:42:15;;;;;;;;;;;20.10;69.70;;;;;;5022453;28;880;-70
2022/10/01 01:44:42;;;;;;;;;;;20.10;69.70;;;;;;5018440;28;1070;-70
2022/10/01 01:47:09;;;;;;;;;;;20.10;69.70;;;;;;5022082;28;1910;-70
2022/10/01 01:49:35;;;;;;;;;;;20.10;69.70;;;;;;5019146;28;1288;-71
2022/10/01 01:52:04;;;;;;;;;;;20.10;69.70;;;;;;5021372;28;828;-72
2022/10/01 01:54:29;;;;;;;;;;;20.10;69.70;;;;;;5021937;28;964;-70
2022/10/01 01:56:55;;;;;;;;;;;20.10;69.70;;;;;;5020166;28;1225;-69
2022/10/01 01:59:20;;;;;;;;;;;20.10;69.80;;;;;;5010019;28;860;-72
2022/10/01 02:01:48;;;;;;;;;;;20.10;69.70;;;;;;5023201;28;878;-72
2022/10/01 02:04:24;;;;;;;;;;;20.10;69.70;;;;;;5020450;28;900;-71
2022/10/01 02:07:08;;;;;;;;;;;20.10;70.40;;;;;;5021679;28;1914;-72
2022/10/01 02:09:40;;;;;;;;;;;20.10;69.80;;;;;;5021668;28;908;-72
2022/10/01 02:12:08;;;;;;;;;;;20.10;69.80;;;;;;5021733;28;889;-72
2022/10/01 02:14:39;;;;;;;;;;;20.10;69.80;;;;;;5020843;28;898;-72
2022/10/01 02:17:15;;;;;;;;;;;20.10;69.80;;;;;;5016495;28;1291;-72
2022/10/01 02:19:43;;;;;;;;;;;20.10;69.80;;;;;;5017703;28;820;-72
2022/10/01 02:22:12;;;;;;;;;;;20.10;69.80;;;;;;5026389;28;828;-69
2022/10/01 02:24:44;;;;;;;;;;;20.10;69.80;;;;;;5021587;28;831;-70
2022/10/01 02:27:14;;;;;;;;;;;20.10;69.80;;;;;;5022276;28;1903;-69
2022/10/01 02:29:39;;;;;;;;;;;20.10;69.80;;;;;;5030717;28;1182;-70
2022/10/01 02:32:05;;;;;;;;;;;20.10;69.80;;;;;;5019901;28;1441;-69
2022/10/01 02:34:30;;;;;;;;;;;20.10;69.80;;;;;;5020453;28;868;-69
2022/10/01 02:36:56;;;;;;;;;;;20.10;69.80;;;;;;5021562;28;1209;-69
2022/10/01 02:39:21;;;;;;;;;;;20.10;69.80;;;;;;5018723;28;1093;-69
2022/10/01 02:41:47;;;;;;;;;;;20.00;69.80;;;;;;5020302;28;1766;-70
2022/10/01 02:44:13;;;;;;;;;;;20.00;69.80;;;;;;5020987;28;878;-70
2022/10/01 02:46:51;;;;;;;;;;;20.10;69.80;;;;;;5020500;28;1974;-71
2022/10/01 02:49:16;;;;;;;;;;;20.00;69.80;;;;;;5022253;28;903;-70
2022/10/01 02:51:44;;;;;;;;;;;20.10;69.90;;;;;;5021556;28;926;-70
2022/10/01 02:54:11;;;;;;;;;;;20.00;69.80;;;;;;5017776;28;1042;-70
2022/10/01 02:59:21;;;;;;;;;;;20.10;69.90;;;;;;5016755;28;840;-69
2022/10/01 03:01:46;;;;;;;;;;;20.00;69.80;;;;;;5017342;28;809;-69
2022/10/01 03:04:12;;;;;;;;;;;20.00;69.80;;;;;;5018561;28;897;-69
2022/10/01 03:06:37;;;;;;;;;;;20.10;69.90;;;;;;5018362;28;1934;-69
2022/10/01 03:09:03;;;;;;;;;;;20.10;69.90;;;;;;5015538;28;814;-69
2022/10/01 03:11:28;;;;;;;;;;;20.00;69.80;;;;;;5017264;28;797;-69
2022/10/01 03:13:54;;;;;;;;;;;20.00;69.80;;;;;;5017854;28;820;-70
2022/10/01 03:16:19;;;;;;;;;;;20.10;69.90;;;;;;5018549;28;1802;-69
2022/10/01 03:18:45;;;;;;;;;;;20.10;69.90;;;;;;5017867;28;832;-70
2022/10/01 03:21:10;;;;;;;;;;;20.00;69.90;;;;;;5020546;28;861;-70
2022/10/01 03:23:36;;;;;;;;;;;20.00;69.90;;;;;;5022010;28;917;-70
2022/10/01 03:26:01;;;;;;;;;;;20.00;69.90;;;;;;5017647;28;1369;-69
2022/10/01 03:28:27;;;;;;;;;;;20.00;69.90;;;;;;5019171;28;1898;-69
2022/10/01 03:31:02;;;;;;;;;;;20.00;69.90;;;;;;5020302;28;819;-69
2022/10/01 03:33:27;;;;;;;;;;;20.10;69.90;;;;;;5022016;28;1405;-69
2022/10/01 03:35:53;;;;;;;;;;;20.10;70.00;;;;;;5018413;28;1276;-71
2022/10/01 03:38:18;;;;;;;;;;;20.00;69.90;;;;;;5018326;28;892;-71
2022/10/01 03:40:44;;;;;;;;;;;20.00;69.90;;;;;;5017899;28;904;-70
2022/10/01 03:43:11;;;;;;;;;;;20.10;70.00;;;;;;5020970;28;912;-71
2022/10/01 03:45:36;;;;;;;;;;;20.10;70.00;;;;;;5018399;28;1205;-70
2022/10/01 03:48:01;;;;;;;;;;;20.00;69.90;;;;;;5017538;28;1969;-71
2022/10/01 03:50:27;;;;;;;;;;;20.10;70.00;;;;;;5015938;28;884;-70
2022/10/01 03:52:52;;;;;;;;;;;20.00;69.90;;;;;;5017595;28;891;-71
2022/10/01 03:55:21;;;;;;;;;;;20.00;70.00;;;;;;5021325;28;896;-71
2022/10/01 03:57:46;;;;;;;;;;;20.00;70.00;;;;;;5018163;28;1089;-71
2022/10/01 04:00:12;;;;;;;;;;;20.00;69.90;;;;;;5017599;28;864;-71
2022/10/01 04:02:38;;;;;;;;;;;20.00;70.00;;;;;;5023087;28;806;-71
2022/10/01 04:05:04;;;;;;;;;;;20.10;70.00;;;;;;5016286;28;972;-71
2022/10/01 04:07:29;;;;;;;;;;;20.00;69.90;;;;;;5019195;28;1906;-74
2022/10/01 04:09:55;;;;;;;;;;;20.00;70.00;;;;;;5016980;28;892;-71
2022/10/01 04:12:20;;;;;;;;;;;20.00;70.00;;;;;;5017538;28;891;-71
2022/10/01 04:14:46;;;;;;;;;;;20.00;70.00;;;;;;5020374;28;884;-72
2022/10/01 04:17:11;;;;;;;;;;;20.00;70.00;;;;;;5018319;28;1248;-71
2022/10/01 04:19:36;;;;;;;;;;;20.10;70.10;;;;;;5020135;28;826;-72
2022/10/01 04:22:02;;;;;;;;;;;20.00;70.00;;;;;;5019680;28;824;-72
2022/10/01 04:24:27;;;;;;;;;;;20.00;70.00;;;;;;5026748;28;848;-72
2022/10/01 04:26:53;;;;;;;;;;;20.00;70.00;;;;;;5019252;28;1963;-70
2022/10/01 04:29:18;;;;;;;;;;;20.00;70.00;;;;;;5021341;28;1019;-72
2022/10/01 04:31:44;;;;;;;;;;;20.10;70.10;;;;;;5016142;28;1513;-70
2022/10/01 04:34:09;;;;;;;;;;;20.00;70.00;;;;;;5018469;28;1978;-69
2022/10/01 04:36:34;;;;;;;;;;;20.00;70.00;;;;;;5019486;28;1359;-68
2022/10/01 04:39:00;;;;;;;;;;;20.00;70.00;;;;;;5014261;28;1246;-69
2022/10/01 04:41:25;;;;;;;;;;;20.10;70.10;;;;;;5014644;28;887;-68
2022/10/01 04:43:51;;;;;;;;;;;20.10;70.10;;;;;;5016100;28;912;-67
2022/10/01 04:46:16;;;;;;;;;;;20.10;70.80;;;;;;5016914;28;1898;-70
2022/10/01 04:48:42;;;;;;;;;;;20.10;70.00;;;;;;5016128;28;1231;-68
2022/10/01 04:51:07;;;;;;;;;;;20.10;69.90;;;;;;5015281;28;1085;-70
2022/10/01 04:53:32;;;;;;;;;;;20.10;69.80;;;;;;5003646;28;4161;-71
2022/10/01 04:55:58;;;;;;;;;;;20.10;69.70;;;;;;5014366;28;4676;-70
2022/10/01 04:58:23;;;;;;;;;;;20.10;69.70;;;;;;5017501;28;990;-71
2022/10/01 05:00:49;;;;;;;;;;;20.20;69.60;;;;;;5017340;28;1077;-71
2022/10/01 05:03:14;;;;;;;;;;;20.20;69.50;;;;;;5017708;28;886;-69
2022/10/01 05:05:40;;;;;;;;;;;20.20;69.50;;;;;;5017283;28;1426;-70
2022/10/01 05:08:05;;;;;;;;;;;20.20;69.40;;;;;;5014310;28;1910;-71
2022/10/01 05:10:31;;;;;;;;;;;20.20;69.30;;;;;;5019207;28;820;-70
2022/10/01 05:12:56;;;;;;;;;;;20.20;69.30;;;;;;5018507;28;835;-71
2022/10/01 05:15:22;;;;;;;;;;;20.30;69.30;;;;;;5015265;28;1360;-71
2022/10/01 05:17:47;;;;;;;;;;;20.30;69.70;;;;;;5016321;28;883;-70
2022/10/01 05:20:17;;;;;;;;;;;20.30;69.80;;;;;;5012809;28;958;-72
2022/10/01 05:22:43;;;;;;;;;;;20.30;70.20;;;;;;5016471;28;851;-71
2022/10/01 05:25:08;;;;;;;;;;;20.30;70.10;;;;;;5017970;28;919;-68
2022/10/01 05:27:37;;;;;;;;;;;20.40;69.70;;;;;;5015810;28;1899;-68
2022/10/01 05:30:04;;;;;;;;;;;20.40;70.00;;;;;;5012490;28;1178;-67
2022/10/01 05:32:30;;;;;;;;;;;20.40;69.70;;;;;;5015944;28;1337;-70
2022/10/01 05:34:55;;;;;;;;;;;20.40;69.60;;;;;;5024113;28;1271;-70
2022/10/01 05:37:21;;;;;;;;;;;20.40;69.60;;;;;;5021206;28;1248;-71
2022/10/01 05:39:46;;;;;;;;;;;20.40;69.70;;;;;;5019898;28;797;-72
2022/10/01 05:42:12;;;;;;;;;;;20.40;69.80;;;;;;5019493;28;1465;-71
2022/10/01 05:44:38;;;;;;;;;;;20.40;70.50;;;;;;5024246;28;951;-71
2022/10/01 05:47:05;;;;;;;;;;;20.40;69.70;;;;;;5021281;28;1910;-71
2022/10/01 05:49:30;;;;;;;;;;;20.40;69.80;;;;;;5021661;28;911;-73
2022/10/01 05:51:57;;;;;;;;;;;20.40;69.70;;;;;;5019152;28;1006;-72
2022/10/01 05:54:23;;;;;;;;;;;20.40;69.80;;;;;;5020253;28;828;-72
2022/10/01 05:56:49;;;;;;;;;;;20.40;69.90;;;;;;5019063;28;1335;-72
2022/10/01 05:59:14;;;;;;;;;;;20.40;69.80;;;;;;5022091;28;924;-72
2022/10/01 06:01:40;;;;;;;;;;;20.40;69.80;;;;;;5018977;28;911;-71
2022/10/01 06:04:05;;;;;;;;;;;20.40;69.80;;;;;;5015310;28;888;-71
2022/10/01 06:06:31;;;;;;;;;;;20.40;69.90;;;;;;5015104;28;1993;-70
2022/10/01 06:08:56;;;;;;;;;;;20.40;69.80;;;;;;5020263;28;813;-73
2022/10/01 06:11:23;;;;;;;;;;;20.40;69.80;;;;;;5018538;28;1304;-73
2022/10/01 06:13:50;;;;;;;;;;;20.40;69.90;;;;;;5019834;28;872;-71
2022/10/01 06:16:15;;;;;;;;;;;20.40;69.80;;;;;;5020401;28;1276;-72
2022/10/01 06:18:41;;;;;;;;;;;20.40;69.90;;;;;;5026535;28;879;-71
2022/10/01 06:21:07;;;;;;;;;;;20.40;70.00;;;;;;5018379;28;872;-72
2022/10/01 06:23:32;;;;;;;;;;;20.40;69.90;;;;;;5017043;28;883;-72
2022/10/01 06:25:58;;;;;;;;;;;20.40;70.00;;;;;;5019272;28;1348;-70
2022/10/01 06:28:23;;;;;;;;;;;20.40;69.90;;;;;;5020819;28;1961;-69
2022/10/01 06:30:49;;;;;;;;;;;20.40;70.10;;;;;;5019964;28;1284;-69
2022/10/01 06:33:15;;;;;;;;;;;20.40;70.00;;;;;;5017253;28;1352;-69
2022/10/01 06:35:41;;;;;;;;;;;20.40;70.00;;;;;;5017607;28;1284;-70
2022/10/01 06:38:08;;;;;;;;;;;20.40;70.00;;;;;;5020521;28;773;-69
2022/10/01 06:40:33;;;;;;;;;;;20.40;70.00;;;;;;5016990;28;871;-69
2022/10/01 06:42:59;;;;;;;;;;;20.40;70.10;;;;;;5021111;28;1014;-68
2022/10/01 06:45:24;;;;;;;;;;;20.40;70.20;;;;;;5019659;28;1248;-69
2022/10/01 06:47:54;;;;;;;;;;;20.40;70.10;;;;;;5016175;28;1910;-69
2022/10/01 06:50:19;;;;;;;;;;;20.40;70.20;;;;;;5019533;28;1323;-70
2022/10/01 06:52:48;;;;;;;;;;;20.40;70.20;;;;;;5016812;28;1069;-70
2022/10/01 06:55:14;;;;;;;;;;;20.40;70.20;;;;;;5022393;28;816;-71
2022/10/01 06:57:39;;;;;;;;;;;20.40;70.20;;;;;;5022381;28;2140;-71
2022/10/01 07:00:05;;;;;;;;;;;20.40;70.20;;;;;;5022737;28;1476;-72
2022/10/01 07:02:31;;;;;;;;;;;20.30;70.10;;;;;;5019691;28;1598;-70
2022/10/01 07:04:59;;;;;;;;;;;20.30;70.10;;;;;;5020827;28;1965;-70
2022/10/01 07:07:28;;;;;;;;;;;20.40;70.50;;;;;;5022845;28;1926;-70
2022/10/01 07:09:54;;;;;;;;;;;20.30;70.10;;;;;;5021247;28;871;-70
2022/10/01 07:12:19;;;;;;;;;;;20.30;70.20;;;;;;5021150;28;1262;-69
2022/10/01 07:14:45;;;;;;;;;;;20.30;70.30;;;;;;5023002;28;892;-70
2022/10/01 07:17:10;;;;;;;;;;;20.30;70.20;;;;;;5021708;28;1370;-70
2022/10/01 07:19:36;;;;;;;;;;;20.30;70.30;;;;;;5022419;28;805;-70
2022/10/01 07:22:01;;;;;;;;;;;20.40;70.20;;;;;;5019691;28;837;-69
2022/10/01 07:24:26;;;;;;;;;;;20.40;70.30;;;;;;5017483;28;897;-69
2022/10/01 07:26:54;;;;;;;;;;;20.40;70.30;;;;;;5018885;28;1898;-68
2022/10/01 07:29:21;;;;;;;;;;;20.40;70.20;;;;;;5018222;28;950;-70
2022/10/01 07:31:47;;;;;;;;;;;20.40;70.20;;;;;;5019525;28;1357;-71
2022/10/01 07:34:13;;;;;;;;;;;20.40;70.20;;;;;;5005141;28;1562;-70
2022/10/01 07:36:39;;;;;;;;;;;20.40;70.20;;;;;;5020735;28;1265;-70
2022/10/01 07:39:04;;;;;;;;;;;20.40;70.20;;;;;;5018873;28;2186;-71
2022/10/01 07:41:29;;;;;;;;;;;20.40;70.10;;;;;;5020215;28;1474;-70
2022/10/01 07:43:55;;;;;;;;;;;20.40;70.10;;;;;;5018418;28;812;-70
2022/10/01 07:46:20;;;;;;;;;;;20.40;70.70;;;;;;5019542;28;1946;-71
2022/10/01 07:48:47;;;;;;;;;;;20.40;70.00;;;;;;5020056;28;804;-70
2022/10/01 07:51:12;;;;;;;;;;;20.40;70.00;;;;;;5018105;28;1046;-70
2022/10/01 07:53:38;;;;;;;;;;;20.50;70.00;;;;;;5019009;28;888;-70
2022/10/01 07:56:03;;;;;;;;;;;20.50;69.90;;;;;;5017006;28;1269;-70
2022/10/01 07:58:29;;;;;;;;;;;20.50;69.90;;;;;;5016641;28;839;-71
2022/10/01 08:00:57;;;;;;;;;;;20.50;69.90;;;;;;5019139;28;921;-70
2022/10/01 08:03:23;;;;;;;;;;;20.50;69.90;;;;;;5020029;28;941;-70
2022/10/01 08:05:48;;;;;;;;;;;20.50;69.90;;;;;;5021565;28;1619;-70
2022/10/01 08:08:14;;;;;;;;;;;20.50;70.00;;;;;;5018467;28;1937;-70
2022/10/01 08:10:40;;;;;;;;;;;20.50;69.90;;;;;;5018918;28;884;-70
2022/10/01 08:13:13;;;;;;;;;;;20.50;69.90;;;;;;5020917;28;843;-70
2022/10/01 08:15:39;;;;;;;;;;;20.50;69.90;;;;;;5016694;28;1370;-70
2022/10/01 08:18:04;;;;;;;;;;;20.50;69.90;;;;;;5016835;28;1053;-70
2022/10/01 08:20:30;;;;;;;;;;;20.50;69.80;;;;;;5017935;28;824;-71
2022/10/01 08:23:00;;;;;;;;;;;20.50;69.80;;;;;;5016949;28;876;-70
2022/10/01 08:25:25;;;;;;;;;;;20.50;69.80;;;;;;5018914;28;1280;-70
2022/10/01 08:27:52;;;;;;;;;;;20.50;69.70;;;;;;5020115;28;1918;-71
2022/10/01 08:30:18;;;;;;;;;;;20.50;69.80;;;;;;5019511;28;836;-71
2022/10/01 08:32:43;;;;;;;;;;;20.50;69.80;;;;;;5017636;28;1422;-70
2022/10/01 08:35:08;;;;;;;;;;;20.50;69.70;;;;;;5019601;28;1887;-70
2022/10/01 08:37:34;;;;;;;;;;;20.50;69.70;;;;;;5018364;28;1304;-70
2022/10/01 08:39:59;;;;;;;;;;;20.50;69.70;;;;;;5018753;28;822;-70
2022/10/01 08:42:37;;;;;;;;;;;20.50;69.70;;;;;;5017165;28;794;-70
2022/10/01 08:45:08;;;;;;;;;;;20.50;69.70;;;;;;5018470;28;954;-71
2022/10/01 08:47:34;;;;;;;;;;;20.50;69.70;;;;;;5019146;28;1922;-70
2022/10/01 08:50:26;;;;;;;;;;;20.50;69.70;;;;;;5019073;28;1098;-70
2022/10/01 08:52:53;;;;;;;;;;;20.50;69.60;;;;;;5016797;28;1169;-70
2022/10/01 08:55:20;;;;;;;;;;;20.50;69.60;;;;;;5019068;28;955;-70
2022/10/01 08:57:48;;;;;;;;;;;20.60;69.70;;;;;;5021340;28;820;-69
2022/10/01 09:00:14;;;;;;;;;;;20.50;69.60;;;;;;5019910;28;884;-69
2022/10/01 09:02:40;;;;;;;;;;;20.50;69.60;;;;;;5016067;28;4114;-69
2022/10/01 09:05:09;;;;;;;;;;;20.50;69.60;;;;;;5018130;28;902;-69
2022/10/01 09:07:50;;;;;;;;;;;20.60;69.70;;;;;;5023260;28;1910;-69
2022/10/01 09:10:26;;;;;;;;;;;20.50;69.60;;;;;;5020307;28;995;-69
2022/10/01 09:12:56;;;;;;;;;;;20.60;69.70;;;;;;5022391;28;812;-69
2022/10/01 09:15:28;;;;;;;;;;;20.60;69.70;;;;;;5025121;28;1280;-70
2022/10/01 09:17:54;;;;;;;;;;;20.50;69.60;;;;;;5021079;28;883;-70
2022/10/01 09:20:24;;;;;;;;;;;20.60;69.60;;;;;;5020618;28;1054;-69
2022/10/01 09:22:55;;;;;;;;;;;20.60;69.60;;;;;;5023122;28;869;-69
2022/10/01 09:25:24;;;;;;;;;;;20.60;69.60;;;;;;5021519;28;1233;-69
2022/10/01 09:27:50;;;;;;;;;;;20.60;69.60;;;;;;5026021;28;1977;-69
2022/10/01 09:30:20;;;;;;;;;;;20.60;69.60;;;;;;5027648;28;812;-69
2022/10/01 09:33:09;;;;;;;;;;;20.60;69.60;;;;;;5022012;28;1437;-70
2022/10/01 09:35:38;;;;;;;;;;;20.60;69.70;;;;;;5023087;28;1352;-69
2022/10/01 09:38:14;;;;;;;;;;;20.60;69.60;;;;;;5019524;28;983;-69
2022/10/01 09:40:53;;;;;;;;;;;20.60;69.60;;;;;;5020088;28;928;-69
2022/10/01 09:43:20;;;;;;;;;;;20.60;69.60;;;;;;5016388;28;872;-70
2022/10/01 09:45:46;;;;;;;;;;;20.60;69.60;;;;;;5017448;28;1272;-69
2022/10/01 09:48:17;;;;;;;;;;;20.60;69.70;;;;;;5021623;28;1963;-69
2022/10/01 09:50:43;;;;;;;;;;;20.60;69.60;;;;;;5024727;28;824;-69
2022/10/01 09:53:12;;;;;;;;;;;20.60;69.70;;;;;;5008505;28;839;-69
2022/10/01 09:55:38;;;;;;;;;;;20.60;69.60;;;;;;5020209;28;1246;-70
2022/10/01 09:58:07;;;;;;;;;;;20.60;69.60;;;;;;5020872;28;836;-69
2022/10/01 10:00:33;;;;;;;;;;;20.60;69.70;;;;;;5019332;28;828;-70
2022/10/01 10:02:59;;;;;;;;;;;20.60;69.70;;;;;;5022399;28;1453;-69
2022/10/01 10:05:26;;;;;;;;;;;20.60;69.70;;;;;;5024913;28;1259;-70
2022/10/01 10:07:51;;;;;;;;;;;20.60;69.70;;;;;;5020687;28;1967;-69
2022/10/01 10:10:18;;;;;;;;;;;20.60;69.60;;;;;;5021708;28;1041;-70
2022/10/01 10:12:44;;;;;;;;;;;20.60;69.70;;;;;;5019011;28;1006;-69
2022/10/01 10:15:15;;;;;;;;;;;20.60;69.70;;;;;;5018643;28;836;-69
2022/10/01 10:17:43;;;;;;;;;;;20.60;69.70;;;;;;5021487;28;1315;-69
2022/10/01 10:20:18;;;;;;;;;;;20.60;69.70;;;;;;5021673;28;851;-69
2022/10/01 10:22:43;;;;;;;;;;;20.60;69.70;;;;;;5020631;28;1030;-70
2022/10/01 10:25:09;;;;;;;;;;;20.60;69.60;;;;;;5022145;28;841;-69
2022/10/01 10:27:35;;;;;;;;;;;20.60;69.60;;;;;;5020162;28;1918;-69
2022/10/01 10:30:13;;;;;;;;;;;20.60;69.60;;;;;;5020930;28;832;-69
2022/10/01 10:32:39;;;;;;;;;;;20.60;69.60;;;;;;5019149;28;1390;-69
2022/10/01 10:35:08;;;;;;;;;;;20.60;69.50;;;;;;5017277;28;936;-69
2022/10/01 10:37:35;;;;;;;;;;;20.60;69.50;;;;;;5019121;28;1260;-69
2022/10/01 10:40:01;;;;;;;;;;;20.70;69.50;;;;;;5020203;28;880;-69
2022/10/01 10:42:27;;;;;;;;;;;20.60;69.40;;;;;;5023835;28;876;-69
2022/10/01 10:44:53;;;;;;;;;;;20.70;69.50;;;;;;5017820;28;1204;-69
2022/10/01 10:47:19;;;;;;;;;;;20.70;69.40;;;;;;5020099;28;1913;-69
2022/10/01 10:50:01;;;;;;;;;;;20.70;69.30;;;;;;5022506;28;1860;-69
2022/10/01 10:52:32;;;;;;;;;;;20.70;69.20;;;;;;5021215;28;1545;-69
2022/10/01 10:54:58;;;;;;;;;;;20.70;69.10;;;;;;5022958;28;2100;-69
2022/10/01 10:57:26;;;;;;;;;;;20.70;69.10;;;;;;5022588;28;1382;-69
2022/10/01 11:00:11;;;;;;;;;;;20.80;69.10;;;;;;5022459;28;1407;-69
2022/10/01 11:02:38;;;;;;;;;;;20.80;69.10;;;;;;5022262;28;789;-69
2022/10/01 11:05:10;;;;;;;;;;;20.80;69.10;;;;;;5018943;28;1975;-69
2022/10/01 11:07:36;;;;;;;;;;;20.80;69.10;;;;;;5018663;28;1906;-69
2022/10/01 11:10:01;;;;;;;;;;;20.80;69.10;;;;;;5018927;28;941;-69
2022/10/01 11:12:30;;;;;;;;;;;20.80;68.90;;;;;;5020889;28;950;-69
2022/10/01 11:15:00;;;;;;;;;;;20.90;69.10;;;;;;5020407;28;876;-69
2022/10/01 11:17:41;;;;;;;;;;;20.80;69.60;;;;;;5016515;28;1272;-69
2022/10/01 11:20:16;;;;;;;;;;;20.80;68.90;;;;;;5019730;28;887;-70
2022/10/01 11:22:57;;;;;;;;;;;20.80;68.90;;;;;;5019276;28;920;-69
2022/10/01 11:25:25;;;;;;;;;;;20.80;68.90;;;;;;5023610;28;1379;-69
2022/10/01 11:27:52;;;;;;;;;;;20.80;69.00;;;;;;5016944;28;1975;-68
2022/10/01 11:30:21;;;;;;;;;;;20.90;69.00;;;;;;5018546;28;1165;-69
2022/10/01 11:32:50;;;;;;;;;;;20.80;69.00;;;;;;5017721;28;1381;-69
2022/10/01 11:35:18;;;;;;;;;;;20.80;69.00;;;;;;5017449;28;887;-70
2022/10/01 11:37:56;;;;;;;;;;;20.80;69.00;;;;;;5019741;28;1258;-70
2022/10/01 11:40:48;;;;;;;;;;;20.80;69.00;;;;;;5019813;28;946;-69
2022/10/01 11:43:15;;;;;;;;;;;20.80;69.00;;;;;;5016000;28;1026;-70
2022/10/01 11:45:42;;;;;;;;;;;20.80;69.00;;;;;;5020742;28;1233;-69
2022/10/01 11:48:11;;;;;;;;;;;20.80;69.10;;;;;;5018520;28;1912;-69
2022/10/01 11:50:39;;;;;;;;;;;20.80;69.00;;;;;;5020982;28;875;-69
2022/10/01 11:53:10;;;;;;;;;;;20.80;69.00;;;;;;5014893;28;952;-69
2022/10/01 11:58:59;;;;;;;;;;;20.80;69.00;;;;;;4992435;28;1192;-69
2022/10/01 12:01:41;;;;;;;;;;;20.90;69.10;;;;;;5019006;28;840;-69
2022/10/01 12:04:10;;;;;;;;;;;20.80;69.00;;;;;;5017010;28;1061;-69
2022/10/01 12:06:55;;;;;;;;;;;20.80;69.00;;;;;;5018805;28;1981;-70
2022/10/01 12:09:23;;;;;;;;;;;20.80;69.00;;;;;;5016629;28;871;-69
2022/10/01 12:12:00;;;;;;;;;;;20.90;69.10;;;;;;5017032;28;870;-69
2022/10/01 12:14:28;;;;;;;;;;;20.80;69.00;;;;;;5017093;28;907;-69
2022/10/01 12:16:55;;;;;;;;;;;20.80;68.90;;;;;;5018524;28;1256;-69
2022/10/01 12:19:27;;;;;;;;;;;20.80;69.00;;;;;;5014914;28;947;-69
2022/10/01 12:21:58;;;;;;;;;;;20.80;68.90;;;;;;5017884;28;903;-69
2022/10/01 12:24:31;;;;;;;;;;;20.90;69.00;;;;;;5018623;28;907;-69
2022/10/01 12:27:17;;;;;;;;;;;20.80;68.90;;;;;;5018777;28;1961;-69
2022/10/01 12:29:54;;;;;;;;;;;20.80;69.10;;;;;;5020519;28;839;-69
2022/10/01 12:32:32;;;;;;;;;;;20.80;69.00;;;;;;5009547;28;4048;-68
2022/10/01 12:35:01;;;;;;;;;;;20.90;69.10;;;;;;5017636;28;864;-69
2022/10/01 12:37:33;;;;;;;;;;;20.80;69.80;;;;;;5017983;28;1333;-69
2022/10/01 12:39:58;;;;;;;;;;;20.80;69.00;;;;;;5016404;28;922;-70
2022/10/01 12:42:24;;;;;;;;;;;20.80;69.00;;;;;;5022823;28;851;-68
2022/10/01 12:44:49;;;;;;;;;;;20.80;69.00;;;;;;5023057;28;2032;-70
2022/10/01 12:47:35;;;;;;;;;;;20.80;69.00;;;;;;5024561;28;1961;-68
2022/10/01 12:50:00;;;;;;;;;;;20.90;69.20;;;;;;5024596;28;941;-69
2022/10/01 12:52:32;;;;;;;;;;;20.80;69.10;;;;;;5024495;28;1126;-70
2022/10/01 12:55:03;;;;;;;;;;;20.80;69.00;;;;;;5022791;28;1147;-69
2022/10/01 12:57:35;;;;;;;;;;;20.80;69.10;;;;;;5022852;28;1287;-69
2022/10/01 13:00:20;;;;;;;;;;;20.80;69.10;;;;;;5023509;28;1650;-69
2022/10/01 13:03:00;;;;;;;;;;;20.80;69.10;;;;;;5022326;28;883;-69
2022/10/01 13:05:25;;;;;;;;;;;20.80;69.10;;;;;;5026657;28;1280;-68
2022/10/01 13:08:01;;;;;;;;;;;20.80;69.10;;;;;;5020321;28;1902;-69
2022/10/01 13:10:30;;;;;;;;;;;20.80;69.10;;;;;;5019622;28;955;-69
2022/10/01 13:13:15;;;;;;;;;;;20.80;69.10;;;;;;5023488;28;895;-69
2022/10/01 13:15:43;;;;;;;;;;;20.80;69.10;;;;;;5020828;28;1367;-69
2022/10/01 13:18:17;;;;;;;;;;;20.80;69.10;;;;;;5025457;28;893;-69
2022/10/01 13:20:47;;;;;;;;;;;20.80;69.20;;;;;;5022049;28;781;-69
2022/10/01 13:23:39;;;;;;;;;;;20.80;69.20;;;;;;5023454;28;849;-69
2022/10/01 13:26:07;;;;;;;;;;;20.80;69.20;;;;;;5003479;28;1267;-70
2022/10/01 13:28:51;;;;;;;;;;;20.80;69.20;;;;;;5023138;28;1946;-69
2022/10/01 13:31:19;;;;;;;;;;;20.80;69.10;;;;;;5020944;28;1025;-70
2022/10/01 13:33:54;;;;;;;;;;;20.80;69.10;;;;;;5020244;28;948;-70
2022/10/01 13:36:27;;;;;;;;;;;20.80;69.10;;;;;;5022347;28;1286;-69
2022/10/01 13:38:52;;;;;;;;;;;20.80;69.10;;;;;;5023880;28;1191;-69
2022/10/01 13:41:19;;;;;;;;;;;20.80;69.10;;;;;;5019434;28;805;-69
2022/10/01 13:43:57;;;;;;;;;;;20.80;69.10;;;;;;5021233;28;875;-69
2022/10/01 13:46:23;;;;;;;;;;;20.80;69.10;;;;;;5020455;28;1237;-69
2022/10/01 13:48:49;;;;;;;;;;;20.90;69.20;;;;;;5022674;28;1969;-69
2022/10/01 13:51:14;;;;;;;;;;;20.80;69.10;;;;;;5021117;28;863;-69
2022/10/01 13:53:40;;;;;;;;;;;20.80;69.10;;;;;;5018688;28;2149;-70
2022/10/01 13:56:05;;;;;;;;;;;20.90;69.20;;;;;;5023362;28;1428;-69
2022/10/01 13:58:35;;;;;;;;;;;20.80;69.10;;;;;;5021154;28;1314;-69
2022/10/01 14:01:02;;;;;;;;;;;20.80;69.10;;;;;;5020671;28;864;-68
2022/10/01 14:03:36;;;;;;;;;;;20.90;69.20;;;;;;5021005;28;970;-68
2022/10/01 14:06:02;;;;;;;;;;;20.90;69.20;;;;;;5020072;28;1264;-69
2022/10/01 14:08:30;;;;;;;;;;;20.80;69.10;;;;;;5019922;28;1965;-69
2022/10/01 14:16:34;;;;;;;;;;;20.80;69.10;;;;;;5019618;28;1422;-69
2022/10/01 14:18:59;;;;;;;;;;;20.80;69.10;;;;;;5019491;28;966;-69
2022/10/01 14:21:31;;;;;;;;;;;20.80;69.90;;;;;;5020858;28;888;-69
2022/10/01 14:23:56;;;;;;;;;;;20.90;69.20;;;;;;5020317;28;899;-69
2022/10/01 14:26:37;;;;;;;;;;;20.90;69.20;;;;;;5023015;28;1253;-69
2022/10/01 14:29:05;;;;;;;;;;;20.90;69.10;;;;;;5021098;28;956;-69
2022/10/01 14:31:34;;;;;;;;;;;20.90;69.10;;;;;;5022294;28;1052;-69
2022/10/01 14:34:00;;;;;;;;;;;20.90;69.10;;;;;;5019098;28;1098;-69
2022/10/01 14:36:36;;;;;;;;;;;20.90;69.00;;;;;;5018546;28;1236;-69
2022/10/01 14:39:10;;;;;;;;;;;20.90;69.00;;;;;;5018844;28;828;-70
2022/10/01 14:41:36;;;;;;;;;;;20.90;69.10;;;;;;5022041;28;1014;-69
2022/10/01 14:44:01;;;;;;;;;;;20.90;69.10;;;;;;5019018;28;784;-69
2022/10/01 14:46:27;;;;;;;;;;;20.90;69.00;;;;;;5019542;28;1335;-69
2022/10/01 14:48:56;;;;;;;;;;;20.90;69.10;;;;;;5019882;28;1960;-69
2022/10/01 14:51:25;;;;;;;;;;;20.90;69.10;;;;;;5017929;28;950;-69
2022/10/01 14:53:51;;;;;;;;;;;20.90;69.10;;;;;;5019024;28;877;-69